sensor_id;sensor_type;location;lat;lon;timestamp;P1;durP1;ratioP1;P2;durP2;ratioP2
11422;SDS011;5768;51.476;7.210;2022-09-16T00:04:09;4.82;;;1.80;;
11422;SDS011;5768;51.476;7.210;2022-09-16T00:09:11;4.47;;;2.05;;
11422;SDS011;5768;51.476;7.210;2022-09-16T00:14:13;5.07;;;2.13;;
11422;SDS011;5768;51.476;7.210;2022-09-16T00:19:17;4.30;;;2.00;;
11422;SDS011;5768;51.476;7.210;2022-09-16T00:24:19;6.25;;;2.47;;
11422;SDS011;5768;51.476;7.210;2022-09-16T00:29:22;6.43;;;2.28;;
11422;SDS011;5768;51.476;7.210;2022-09-16T00:34:26;6.85;;;2.08;;
11422;SDS011;5768;51.476;7.210;2022-09-16T00:39:28;6.25;;;2.20;;
11422;SDS011;5768;51.476;7.210;2022-09-16T00:50:02;5.65;;;2.20;;
11422;SDS011;5768;51.476;7.210;2022-09-16T00:55:10;5.70;;;2.03;;
11422;SDS011;5768;51.476;7.210;2022-09-16T01:00:18;7.70;;;2.47;;
11422;SDS011;5768;51.476;7.210;2022-09-16T01:05:22;6.35;;;2.05;;
11422;SDS011;5768;51.476;7.210;2022-09-16T01:10:26;5.77;;;2.00;;
11422;SDS011;5768;51.476;7.210;2022-09-16T01:15:30;4.97;;;2.03;;
11422;SDS011;5768;51.476;7.210;2022-09-16T01:26:21;5.65;;;1.98;;
11422;SDS011;5768;51.476;7.210;2022-09-16T01:32:08;5.57;;;1.90;;
11422;SDS011;5768;51.476;7.210;2022-09-16T01:37:20;6.68;;;1.90;;
11422;SDS011;5768;51.476;7.210;2022-09-16T01:42:37;4.28;;;1.77;;
11422;SDS011;5768;51.476;7.210;2022-09-16T01:47:53;3.05;;;1.70;;
11422;SDS011;5768;51.476;7.210;2022-09-16T01:53:08;5.17;;;1.87;;
11422;SDS011;5768;51.476;7.210;2022-09-16T01:58:20;5.83;;;1.90;;
11422;SDS011;5768;51.476;7.210;2022-09-16T02:03:31;2.63;;;1.40;;
11422;SDS011;5768;51.476;7.210;2022-09-16T02:08:38;3.87;;;1.50;;
11422;SDS011;5768;51.476;7.210;2022-09-16T02:13:46;2.97;;;1.90;;
11422;SDS011;5768;51.476;7.210;2022-09-16T02:18:58;4.13;;;1.60;;
11422;SDS011;5768;51.476;7.210;2022-09-16T02:24:12;6.03;;;2.05;;
11422;SDS011;5768;51.476;7.210;2022-09-16T02:29:20;4.85;;;1.80;;
11422;SDS011;5768;51.476;7.210;2022-09-16T02:34:29;5.30;;;1.60;;
11422;SDS011;5768;51.476;7.210;2022-09-16T02:39:38;4.30;;;1.65;;
11422;SDS011;5768;51.476;7.210;2022-09-16T02:44:45;4.43;;;1.35;;
11422;SDS011;5768;51.476;7.210;2022-09-16T02:49:51;1.67;;;1.13;;
11422;SDS011;5768;51.476;7.210;2022-09-16T02:55:00;5.53;;;1.25;;
11422;SDS011;5768;51.476;7.210;2022-09-16T03:00:14;4.40;;;1.42;;
11422;SDS011;5768;51.476;7.210;2022-09-16T03:05:18;4.80;;;1.58;;
11422;SDS011;5768;51.476;7.210;2022-09-16T03:10:21;5.27;;;1.50;;
11422;SDS011;5768;51.476;7.210;2022-09-16T03:15:33;3.27;;;1.50;;
11422;SDS011;5768;51.476;7.210;2022-09-16T03:20:57;4.00;;;1.70;;
11422;SDS011;5768;51.476;7.210;2022-09-16T03:26:15;6.18;;;2.17;;
11422;SDS011;5768;51.476;7.210;2022-09-16T03:31:29;6.47;;;2.50;;
11422;SDS011;5768;51.476;7.210;2022-09-16T03:36:42;5.23;;;1.87;;
11422;SDS011;5768;51.476;7.210;2022-09-16T03:41:50;6.00;;;2.03;;
11422;SDS011;5768;51.476;7.210;2022-09-16T03:46:54;6.43;;;1.50;;
11422;SDS011;5768;51.476;7.210;2022-09-16T03:51:58;5.82;;;1.70;;
11422;SDS011;5768;51.476;7.210;2022-09-16T03:57:00;1.83;;;1.40;;
11422;SDS011;5768;51.476;7.210;2022-09-16T04:02:03;3.03;;;1.40;;
11422;SDS011;5768;51.476;7.210;2022-09-16T04:07:06;3.93;;;1.80;;
11422;SDS011;5768;51.476;7.210;2022-09-16T04:12:08;5.68;;;1.70;;
11422;SDS011;5768;51.476;7.210;2022-09-16T04:17:10;2.67;;;1.47;;
11422;SDS011;5768;51.476;7.210;2022-09-16T04:22:14;1.70;;;1.43;;
11422;SDS011;5768;51.476;7.210;2022-09-16T04:27:16;4.43;;;1.80;;
11422;SDS011;5768;51.476;7.210;2022-09-16T04:32:18;4.43;;;1.60;;
11422;SDS011;5768;51.476;7.210;2022-09-16T04:37:22;6.15;;;2.00;;
11422;SDS011;5768;51.476;7.210;2022-09-16T04:42:24;4.38;;;1.70;;
11422;SDS011;5768;51.476;7.210;2022-09-16T04:47:26;4.23;;;1.90;;
11422;SDS011;5768;51.476;7.210;2022-09-16T04:52:30;6.07;;;1.70;;
11422;SDS011;5768;51.476;7.210;2022-09-16T04:57:33;6.32;;;2.05;;
11422;SDS011;5768;51.476;7.210;2022-09-16T05:02:36;7.23;;;2.30;;
11422;SDS011;5768;51.476;7.210;2022-09-16T05:07:40;2.72;;;1.55;;
11422;SDS011;5768;51.476;7.210;2022-09-16T05:12:42;6.18;;;2.08;;
11422;SDS011;5768;51.476;7.210;2022-09-16T05:17:44;6.23;;;2.20;;
11422;SDS011;5768;51.476;7.210;2022-09-16T05:22:49;4.90;;;1.70;;
11422;SDS011;5768;51.476;7.210;2022-09-16T05:27:51;3.87;;;1.80;;
11422;SDS011;5768;51.476;7.210;2022-09-16T05:32:53;4.93;;;1.73;;
11422;SDS011;5768;51.476;7.210;2022-09-16T05:37:56;3.50;;;2.00;;
11422;SDS011;5768;51.476;7.210;2022-09-16T05:42:58;5.10;;;1.80;;
11422;SDS011;5768;51.476;7.210;2022-09-16T05:48:01;5.78;;;2.00;;
11422;SDS011;5768;51.476;7.210;2022-09-16T05:53:04;5.63;;;1.70;;
11422;SDS011;5768;51.476;7.210;2022-09-16T05:58:06;6.73;;;1.83;;
11422;SDS011;5768;51.476;7.210;2022-09-16T06:03:09;6.27;;;1.80;;
11422;SDS011;5768;51.476;7.210;2022-09-16T06:08:12;5.73;;;1.87;;
11422;SDS011;5768;51.476;7.210;2022-09-16T06:13:15;5.10;;;1.77;;
11422;SDS011;5768;51.476;7.210;2022-09-16T06:18:18;4.27;;;1.90;;
11422;SDS011;5768;51.476;7.210;2022-09-16T06:23:22;5.97;;;2.20;;
11422;SDS011;5768;51.476;7.210;2022-09-16T06:28:24;4.40;;;2.47;;
11422;SDS011;5768;51.476;7.210;2022-09-16T06:33:27;3.23;;;1.83;;
11422;SDS011;5768;51.476;7.210;2022-09-16T06:38:30;6.03;;;2.45;;
11422;SDS011;5768;51.476;7.210;2022-09-16T06:43:33;4.60;;;2.00;;
11422;SDS011;5768;51.476;7.210;2022-09-16T06:48:37;7.60;;;2.57;;
11422;SDS011;5768;51.476;7.210;2022-09-16T06:53:42;6.03;;;2.57;;
11422;SDS011;5768;51.476;7.210;2022-09-16T06:58:46;6.07;;;2.30;;
11422;SDS011;5768;51.476;7.210;2022-09-16T07:03:51;6.77;;;2.80;;
11422;SDS011;5768;51.476;7.210;2022-09-16T07:09:14;4.80;;;2.90;;
11422;SDS011;5768;51.476;7.210;2022-09-16T07:14:35;5.87;;;2.87;;
11422;SDS011;5768;51.476;7.210;2022-09-16T07:19:38;12.07;;;3.40;;
11422;SDS011;5768;51.476;7.210;2022-09-16T07:24:42;5.83;;;3.20;;
11422;SDS011;5768;51.476;7.210;2022-09-16T07:29:45;7.20;;;3.40;;
11422;SDS011;5768;51.476;7.210;2022-09-16T07:34:47;7.63;;;3.17;;
11422;SDS011;5768;51.476;7.210;2022-09-16T07:39:51;6.80;;;3.40;;
11422;SDS011;5768;51.476;7.210;2022-09-16T07:44:54;7.55;;;3.05;;
11422;SDS011;5768;51.476;7.210;2022-09-16T07:49:56;2.45;;;1.70;;
11422;SDS011;5768;51.476;7.210;2022-09-16T07:55:00;7.05;;;2.70;;
11422;SDS011;5768;51.476;7.210;2022-09-16T08:00:03;3.97;;;1.95;;
11422;SDS011;5768;51.476;7.210;2022-09-16T08:05:07;6.97;;;2.40;;
11422;SDS011;5768;51.476;7.210;2022-09-16T08:10:11;4.13;;;1.40;;
11422;SDS011;5768;51.476;7.210;2022-09-16T08:15:13;3.53;;;1.80;;
11422;SDS011;5768;51.476;7.210;2022-09-16T08:20:16;3.17;;;1.70;;
11422;SDS011;5768;51.476;7.210;2022-09-16T08:25:19;5.40;;;1.85;;
11422;SDS011;5768;51.476;7.210;2022-09-16T08:30:21;3.72;;;1.73;;
11422;SDS011;5768;51.476;7.210;2022-09-16T08:35:24;2.90;;;1.60;;
11422;SDS011;5768;51.476;7.210;2022-09-16T08:40:29;3.10;;;1.67;;
11422;SDS011;5768;51.476;7.210;2022-09-16T08:45:39;3.50;;;2.10;;
11422;SDS011;5768;51.476;7.210;2022-09-16T08:50:50;3.38;;;1.50;;
11422;SDS011;5768;51.476;7.210;2022-09-16T08:55:55;4.75;;;1.65;;
11422;SDS011;5768;51.476;7.210;2022-09-16T09:00:59;4.10;;;1.50;;
11422;SDS011;5768;51.476;7.210;2022-09-16T09:06:30;2.75;;;1.60;;
11422;SDS011;5768;51.476;7.210;2022-09-16T09:11:57;2.40;;;1.30;;
11422;SDS011;5768;51.476;7.210;2022-09-16T09:17:12;2.55;;;1.30;;
11422;SDS011;5768;51.476;7.210;2022-09-16T09:22:31;3.05;;;1.30;;
11422;SDS011;5768;51.476;7.210;2022-09-16T09:28:03;3.78;;;1.50;;
11422;SDS011;5768;51.476;7.210;2022-09-16T09:33:24;3.63;;;1.00;;
11422;SDS011;5768;51.476;7.210;2022-09-16T09:38:47;2.70;;;0.98;;
11422;SDS011;5768;51.476;7.210;2022-09-16T09:44:32;2.92;;;1.10;;
11422;SDS011;5768;51.476;7.210;2022-09-16T09:49:47;2.10;;;1.17;;
11422;SDS011;5768;51.476;7.210;2022-09-16T09:54:54;3.47;;;1.13;;
11422;SDS011;5768;51.476;7.210;2022-09-16T10:00:10;6.35;;;1.45;;
11422;SDS011;5768;51.476;7.210;2022-09-16T10:05:21;2.42;;;0.95;;
11422;SDS011;5768;51.476;7.210;2022-09-16T10:10:26;3.85;;;1.10;;
11422;SDS011;5768;51.476;7.210;2022-09-16T10:15:35;3.25;;;1.20;;
11422;SDS011;5768;51.476;7.210;2022-09-16T10:20:38;1.92;;;1.10;;
11422;SDS011;5768;51.476;7.210;2022-09-16T10:25:44;3.78;;;1.02;;
11422;SDS011;5768;51.476;7.210;2022-09-16T10:30:48;2.58;;;1.33;;
11422;SDS011;5768;51.476;7.210;2022-09-16T10:35:55;1.63;;;0.85;;
11422;SDS011;5768;51.476;7.210;2022-09-16T10:41:05;2.88;;;1.08;;
11422;SDS011;5768;51.476;7.210;2022-09-16T10:46:12;1.85;;;0.80;;
11422;SDS011;5768;51.476;7.210;2022-09-16T10:51:20;3.08;;;1.10;;
11422;SDS011;5768;51.476;7.210;2022-09-16T10:56:25;2.28;;;1.00;;
11422;SDS011;5768;51.476;7.210;2022-09-16T11:01:34;2.40;;;0.90;;
11422;SDS011;5768;51.476;7.210;2022-09-16T11:06:49;4.70;;;1.15;;
11422;SDS011;5768;51.476;7.210;2022-09-16T11:17:51;1.15;;;0.77;;
11422;SDS011;5768;51.476;7.210;2022-09-16T11:23:18;5.25;;;1.50;;
11422;SDS011;5768;51.476;7.210;2022-09-16T11:28:46;3.58;;;0.95;;
11422;SDS011;5768;51.476;7.210;2022-09-16T11:34:15;3.10;;;1.15;;
11422;SDS011;5768;51.476;7.210;2022-09-16T11:39:38;4.30;;;1.20;;
11422;SDS011;5768;51.476;7.210;2022-09-16T11:45:17;2.85;;;0.90;;
11422;SDS011;5768;51.476;7.210;2022-09-16T11:50:40;1.30;;;0.90;;
11422;SDS011;5768;51.476;7.210;2022-09-16T11:55:54;1.75;;;1.02;;
11422;SDS011;5768;51.476;7.210;2022-09-16T12:01:02;2.78;;;0.95;;
11422;SDS011;5768;51.476;7.210;2022-09-16T12:06:18;3.38;;;1.25;;
11422;SDS011;5768;51.476;7.210;2022-09-16T12:11:28;3.33;;;1.60;;
11422;SDS011;5768;51.476;7.210;2022-09-16T12:16:37;6.20;;;1.52;;
11422;SDS011;5768;51.476;7.210;2022-09-16T12:21:47;3.50;;;1.48;;
11422;SDS011;5768;51.476;7.210;2022-09-16T12:26:55;1.75;;;1.00;;
11422;SDS011;5768;51.476;7.210;2022-09-16T12:32:07;1.33;;;0.60;;
11422;SDS011;5768;51.476;7.210;2022-09-16T12:37:21;3.83;;;1.20;;
11422;SDS011;5768;51.476;7.210;2022-09-16T12:42:42;1.25;;;0.88;;
11422;SDS011;5768;51.476;7.210;2022-09-16T12:48:30;1.83;;;1.00;;
11422;SDS011;5768;51.476;7.210;2022-09-16T12:54:21;4.25;;;1.23;;
11422;SDS011;5768;51.476;7.210;2022-09-16T13:00:00;1.02;;;0.73;;
11422;SDS011;5768;51.476;7.210;2022-09-16T13:05:16;2.67;;;1.67;;
11422;SDS011;5768;51.476;7.210;2022-09-16T13:10:29;1.90;;;1.10;;
11422;SDS011;5768;51.476;7.210;2022-09-16T13:15:34;1.42;;;0.98;;
11422;SDS011;5768;51.476;7.210;2022-09-16T13:20:39;2.10;;;1.08;;
11422;SDS011;5768;51.476;7.210;2022-09-16T13:25:53;3.33;;;1.45;;
11422;SDS011;5768;51.476;7.210;2022-09-16T13:31:07;5.05;;;1.30;;
11422;SDS011;5768;51.476;7.210;2022-09-16T13:36:29;3.15;;;1.40;;
11422;SDS011;5768;51.476;7.210;2022-09-16T13:41:35;2.20;;;0.93;;
11422;SDS011;5768;51.476;7.210;2022-09-16T13:46:41;1.95;;;1.10;;
11422;SDS011;5768;51.476;7.210;2022-09-16T13:51:44;2.67;;;1.20;;
11422;SDS011;5768;51.476;7.210;2022-09-16T13:56:53;3.00;;;1.40;;
11422;SDS011;5768;51.476;7.210;2022-09-16T14:02:13;3.42;;;1.58;;
11422;SDS011;5768;51.476;7.210;2022-09-16T14:07:26;3.70;;;1.60;;
11422;SDS011;5768;51.476;7.210;2022-09-16T14:12:45;3.90;;;1.33;;
11422;SDS011;5768;51.476;7.210;2022-09-16T14:18:00;3.55;;;1.23;;
11422;SDS011;5768;51.476;7.210;2022-09-16T14:23:04;4.95;;;1.92;;
11422;SDS011;5768;51.476;7.210;2022-09-16T14:28:19;2.97;;;1.73;;
11422;SDS011;5768;51.476;7.210;2022-09-16T14:33:30;2.78;;;1.33;;
11422;SDS011;5768;51.476;7.210;2022-09-16T14:38:39;2.83;;;1.38;;
11422;SDS011;5768;51.476;7.210;2022-09-16T14:43:46;2.63;;;1.40;;
11422;SDS011;5768;51.476;7.210;2022-09-16T14:48:49;4.40;;;1.70;;
11422;SDS011;5768;51.476;7.210;2022-09-16T14:53:55;3.38;;;1.40;;
11422;SDS011;5768;51.476;7.210;2022-09-16T14:59:01;5.95;;;1.80;;
11422;SDS011;5768;51.476;7.210;2022-09-16T15:04:04;4.35;;;1.50;;
11422;SDS011;5768;51.476;7.210;2022-09-16T15:09:15;4.18;;;1.58;;
11422;SDS011;5768;51.476;7.210;2022-09-16T15:14:27;3.33;;;1.75;;
11422;SDS011;5768;51.476;7.210;2022-09-16T15:19:31;1.42;;;1.33;;
11422;SDS011;5768;51.476;7.210;2022-09-16T15:24:39;1.25;;;1.00;;
11422;SDS011;5768;51.476;7.210;2022-09-16T15:29:47;3.60;;;1.40;;
11422;SDS011;5768;51.476;7.210;2022-09-16T15:35:09;3.10;;;1.50;;
11422;SDS011;5768;51.476;7.210;2022-09-16T15:40:21;5.07;;;1.67;;
11422;SDS011;5768;51.476;7.210;2022-09-16T15:45:35;4.60;;;1.83;;
11422;SDS011;5768;51.476;7.210;2022-09-16T15:50:39;5.47;;;1.70;;
11422;SDS011;5768;51.476;7.210;2022-09-16T15:55:51;3.45;;;1.83;;
11422;SDS011;5768;51.476;7.210;2022-09-16T16:01:10;4.90;;;2.25;;
11422;SDS011;5768;51.476;7.210;2022-09-16T16:06:20;2.25;;;0.93;;
11422;SDS011;5768;51.476;7.210;2022-09-16T16:11:48;4.38;;;1.70;;
11422;SDS011;5768;51.476;7.210;2022-09-16T16:16:53;2.78;;;1.40;;
11422;SDS011;5768;51.476;7.210;2022-09-16T16:21:56;2.85;;;1.30;;
11422;SDS011;5768;51.476;7.210;2022-09-16T16:26:59;3.67;;;1.80;;
11422;SDS011;5768;51.476;7.210;2022-09-16T16:32:04;2.88;;;1.35;;
11422;SDS011;5768;51.476;7.210;2022-09-16T16:37:09;4.03;;;1.70;;
11422;SDS011;5768;51.476;7.210;2022-09-16T16:42:14;5.10;;;1.80;;
11422;SDS011;5768;51.476;7.210;2022-09-16T16:47:18;4.03;;;1.45;;
11422;SDS011;5768;51.476;7.210;2022-09-16T16:52:21;3.10;;;1.38;;
11422;SDS011;5768;51.476;7.210;2022-09-16T16:57:23;5.28;;;1.63;;
11422;SDS011;5768;51.476;7.210;2022-09-16T17:02:27;6.68;;;1.42;;
11422;SDS011;5768;51.476;7.210;2022-09-16T17:07:29;5.18;;;1.65;;
11422;SDS011;5768;51.476;7.210;2022-09-16T17:12:31;4.97;;;1.83;;
11422;SDS011;5768;51.476;7.210;2022-09-16T17:17:35;8.07;;;2.30;;
11422;SDS011;5768;51.476;7.210;2022-09-16T17:22:38;4.15;;;1.80;;
11422;SDS011;5768;51.476;7.210;2022-09-16T17:27:40;2.88;;;1.70;;
11422;SDS011;5768;51.476;7.210;2022-09-16T17:32:44;2.50;;;1.42;;
11422;SDS011;5768;51.476;7.210;2022-09-16T17:37:46;5.05;;;1.98;;
11422;SDS011;5768;51.476;7.210;2022-09-16T17:42:49;4.25;;;1.70;;
11422;SDS011;5768;51.476;7.210;2022-09-16T17:47:54;5.75;;;2.10;;
11422;SDS011;5768;51.476;7.210;2022-09-16T17:52:58;5.90;;;2.17;;
11422;SDS011;5768;51.476;7.210;2022-09-16T17:58:00;6.23;;;2.40;;
11422;SDS011;5768;51.476;7.210;2022-09-16T18:03:04;5.43;;;2.05;;
11422;SDS011;5768;51.476;7.210;2022-09-16T18:08:06;3.60;;;1.58;;
11422;SDS011;5768;51.476;7.210;2022-09-16T18:13:09;5.43;;;1.98;;
11422;SDS011;5768;51.476;7.210;2022-09-16T18:18:13;7.87;;;3.73;;
11422;SDS011;5768;51.476;7.210;2022-09-16T18:23:19;4.60;;;1.90;;
11422;SDS011;5768;51.476;7.210;2022-09-16T18:28:21;5.05;;;1.95;;
11422;SDS011;5768;51.476;7.210;2022-09-16T18:33:26;6.87;;;2.10;;
11422;SDS011;5768;51.476;7.210;2022-09-16T18:38:28;5.33;;;1.83;;
11422;SDS011;5768;51.476;7.210;2022-09-16T18:43:31;5.43;;;2.03;;
11422;SDS011;5768;51.476;7.210;2022-09-16T18:48:36;3.77;;;1.90;;
11422;SDS011;5768;51.476;7.210;2022-09-16T18:53:39;8.17;;;2.20;;
11422;SDS011;5768;51.476;7.210;2022-09-16T18:58:46;5.63;;;1.97;;
11422;SDS011;5768;51.476;7.210;2022-09-16T19:03:50;3.73;;;1.80;;
11422;SDS011;5768;51.476;7.210;2022-09-16T19:08:54;6.10;;;1.90;;
11422;SDS011;5768;51.476;7.210;2022-09-16T19:13:57;6.30;;;2.20;;
11422;SDS011;5768;51.476;7.210;2022-09-16T19:19:01;6.83;;;2.10;;
11422;SDS011;5768;51.476;7.210;2022-09-16T19:24:05;4.40;;;1.63;;
11422;SDS011;5768;51.476;7.210;2022-09-16T19:29:13;7.63;;;3.30;;
11422;SDS011;5768;51.476;7.210;2022-09-16T19:34:18;5.53;;;2.10;;
11422;SDS011;5768;51.476;7.210;2022-09-16T19:39:21;4.47;;;2.17;;
11422;SDS011;5768;51.476;7.210;2022-09-16T19:44:26;4.13;;;1.83;;
11422;SDS011;5768;51.476;7.210;2022-09-16T19:49:29;8.20;;;1.93;;
11422;SDS011;5768;51.476;7.210;2022-09-16T19:54:35;6.37;;;1.90;;
11422;SDS011;5768;51.476;7.210;2022-09-16T19:59:37;4.83;;;1.70;;
11422;SDS011;5768;51.476;7.210;2022-09-16T20:04:41;4.13;;;1.30;;
11422;SDS011;5768;51.476;7.210;2022-09-16T20:09:44;6.70;;;2.23;;
11422;SDS011;5768;51.476;7.210;2022-09-16T20:14:48;7.47;;;2.47;;
11422;SDS011;5768;51.476;7.210;2022-09-16T20:19:52;6.73;;;2.00;;
11422;SDS011;5768;51.476;7.210;2022-09-16T20:24:54;6.67;;;2.07;;
11422;SDS011;5768;51.476;7.210;2022-09-16T20:29:56;7.20;;;2.30;;
11422;SDS011;5768;51.476;7.210;2022-09-16T20:35:00;4.70;;;2.10;;
11422;SDS011;5768;51.476;7.210;2022-09-16T20:40:03;6.47;;;2.33;;
11422;SDS011;5768;51.476;7.210;2022-09-16T20:45:07;6.63;;;1.70;;
11422;SDS011;5768;51.476;7.210;2022-09-16T20:50:11;7.20;;;2.50;;
11422;SDS011;5768;51.476;7.210;2022-09-16T20:55:14;5.00;;;1.93;;
11422;SDS011;5768;51.476;7.210;2022-09-16T21:00:16;4.93;;;2.13;;
11422;SDS011;5768;51.476;7.210;2022-09-16T21:05:20;8.47;;;3.57;;
11422;SDS011;5768;51.476;7.210;2022-09-16T21:10:22;9.93;;;2.50;;
11422;SDS011;5768;51.476;7.210;2022-09-16T21:15:25;8.93;;;2.50;;
11422;SDS011;5768;51.476;7.210;2022-09-16T21:20:28;8.40;;;2.10;;
11422;SDS011;5768;51.476;7.210;2022-09-16T21:25:30;7.23;;;2.70;;
11422;SDS011;5768;51.476;7.210;2022-09-16T21:30:33;6.00;;;2.50;;
11422;SDS011;5768;51.476;7.210;2022-09-16T21:35:36;4.80;;;1.60;;
11422;SDS011;5768;51.476;7.210;2022-09-16T21:40:39;5.27;;;2.10;;
11422;SDS011;5768;51.476;7.210;2022-09-16T21:45:41;8.33;;;1.67;;
11422;SDS011;5768;51.476;7.210;2022-09-16T21:50:46;9.63;;;2.10;;
11422;SDS011;5768;51.476;7.210;2022-09-16T21:55:49;5.83;;;1.87;;
11422;SDS011;5768;51.476;7.210;2022-09-16T22:00:51;7.00;;;2.20;;
11422;SDS011;5768;51.476;7.210;2022-09-16T22:06:07;6.97;;;2.20;;
11422;SDS011;5768;51.476;7.210;2022-09-16T22:11:13;8.23;;;2.07;;
11422;SDS011;5768;51.476;7.210;2022-09-16T22:16:18;7.00;;;2.40;;
11422;SDS011;5768;51.476;7.210;2022-09-16T22:21:28;5.20;;;1.90;;
11422;SDS011;5768;51.476;7.210;2022-09-16T22:26:31;6.13;;;2.67;;
11422;SDS011;5768;51.476;7.210;2022-09-16T22:31:35;8.00;;;2.00;;
11422;SDS011;5768;51.476;7.210;2022-09-16T22:36:42;6.47;;;2.47;;
11422;SDS011;5768;51.476;7.210;2022-09-16T22:41:44;6.50;;;2.40;;
11422;SDS011;5768;51.476;7.210;2022-09-16T22:46:47;5.40;;;2.10;;
11422;SDS011;5768;51.476;7.210;2022-09-16T22:51:51;6.63;;;2.40;;
11422;SDS011;5768;51.476;7.210;2022-09-16T22:56:53;7.00;;;2.53;;
11422;SDS011;5768;51.476;7.210;2022-09-16T23:01:56;9.17;;;2.40;;
11422;SDS011;5768;51.476;7.210;2022-09-16T23:06:59;5.80;;;2.37;;
11422;SDS011;5768;51.476;7.210;2022-09-16T23:12:01;6.40;;;2.47;;
11422;SDS011;5768;51.476;7.210;2022-09-16T23:17:04;4.93;;;2.23;;
11422;SDS011;5768;51.476;7.210;2022-09-16T23:22:08;6.87;;;2.00;;
11422;SDS011;5768;51.476;7.210;2022-09-16T23:27:10;5.80;;;2.20;;
11422;SDS011;5768;51.476;7.210;2022-09-16T23:32:12;7.30;;;2.70;;
11422;SDS011;5768;51.476;7.210;2022-09-16T23:37:16;8.73;;;2.93;;
11422;SDS011;5768;51.476;7.210;2022-09-16T23:42:18;8.57;;;2.70;;
11422;SDS011;5768;51.476;7.210;2022-09-16T23:47:20;8.03;;;2.83;;
11422;SDS011;5768;51.476;7.210;2022-09-16T23:52:24;9.00;;;3.03;;
11422;SDS011;5768;51.476;7.210;2022-09-16T23:57:26;8.50;;;3.37;;
